Norman Wells Airport
CYVQ : rendu visible

Aérodrome :











RETROUVEZ-NOUS SUR...

 
LOGIN :

S'inscrire | Disclaimer

   EN    FR    IT 

 









Légende :    VFR   VFR Marginal   IFR   IFR Intensif   IFR Très Intensif
Visi : 
Plafond : 
>= 8 km
>= 3000ft
5 à 8 km
1000 à 3000 ft
1500m à 5 km
500 à 1000 ft
800 à 1500m
200 à 500 ft
< 800m
< 200 ft
Symboles :   Orages  Brouillard  Fortes neiges  Fortes précipitations  Vent > 20 kt






- Altitude de l'aérodrome : 238 ft
- Code IATA : YVQ


CYVQ - Norman Wells

DERNIER METAR :
  • 011800Z 13014KT 30SM FEW180 M12/M20 A3069 RMK AC1 AC TR SLP403

METARs EXPIRÉS :
  • 011700Z 15007KT 30SM FEW180 M13/M21 A3069 RMK AC1 AC TR SLP402
  • 011600Z 12014G20KT 30SM SKC M14/M22 A3069 RMK SLP401

TAF TAF CYVQ
Valide du 01 à 18h jusqu'au 02 à 06h UTC


011738Z 0118/0206 15008KT P6SM SCT090
TEMPO 0118/0206 12015G25KT
BECMG 0120/0122 SKC RMK NXT FCST BY 020000Z



MET'MAP, la Météo Aéronautique d'un coup d'oeil ! - Copyright ORBIFLY Décembre 2007 - Disclaimer

ORBIFLY MET'MAP TEAM :

Programmation & Développement : Alexandra Zaïnal
Sur une idée originale de : Baudouin d'Aumeries
Assistance à la programmation : Marc-Olivier Méhu
Soutien technique & logistique : Manuel Goepfert

Contact : metmap@orbifly.com




SOURCES & CREDITS :

   NOAA       Earth
Advisory